This is the latest recevied weather packets stored in our database for station/object DC2ML-11. If no packets are shown the sender has not sent any weather packets the latest 10 day(s).
| Time | Temp. | Humidity | Pressure | Rain* | Wind** | Luminosity | Snow |
|---|---|---|---|---|---|---|---|
| 1777477294 | 20.56° C | 38% | 1026 hPa | - | - | - | - |
| 1777476393 | 20.56° C | 38% | 1025.9 hPa | - | - | - | - |
| 1777475493 | 20.56° C | 38% | 1026.1 hPa | - | - | - | - |
| 1777474593 | 20° C | 38% | 1026 hPa | - | - | - | - |
| 1777473693 | 20° C | 38% | 1026.1 hPa | - | - | - | - |
| 1777472793 | 20° C | 38% | 1026.2 hPa | - | - | - | - |
| 1777471892 | 20° C | 38% | 1026.3 hPa | - | - | - | - |
| 1777470993 | 20° C | 37% | 1026.3 hPa | - | - | - | - |
| 1777470092 | 19.44° C | 37% | 1026.2 hPa | - | - | - | - |
| 1777469192 | 19.44° C | 37% | 1026.2 hPa | - | - | - | - |
| 1777468292 | 18.89° C | 37% | 1026.4 hPa | - | - | - | - |
| 1777467392 | 18.89° C | 37% | 1026.5 hPa | - | - | - | - |
| 1777466492 | 18.89° C | 36% | 1026.3 hPa | - | - | - | - |
| 1777465592 | 18.33° C | 36% | 1026.5 hPa | - | - | - | - |
| 1777464692 | 18.33° C | 35% | 1026.5 hPa | - | - | - | - |
| 1777463791 | 18.33° C | 34% | 1026.6 hPa | - | - | - | - |
| 1777462891 | 18.89° C | 28% | 1026.6 hPa | - | - | - | - |
| 1777461991 | 18.33° C | 30% | 1026.7 hPa | - | - | - | - |
| 1777461091 | 17.78° C | 38% | 1026.7 hPa | - | - | - | - |
| 1777460191 | 17.22° C | 40% | 1026.8 hPa | - | - | - | - |
| 1777459291 | 17.22° C | 40% | 1026.9 hPa | - | - | - | - |
| 1777458391 | 16.67° C | 40% | 1027 hPa | - | - | - | - |
| 1777457491 | 16.67° C | 40% | 1027.1 hPa | - | - | - | - |
| 1777456591 | 16.67° C | 41% | 1027.1 hPa | - | - | - | - |
| 1777455691 | 16.67° C | 41% | 1027.3 hPa | - | - | - | - |
* Rain since midnight (hover to see other rain measurements)
** Current wind speed in m/s (hover to see current wind gust speed)